Time;durP1;ratioP1;P1;durP2;ratioP2;P2;SDS_P1;SDS_P2;PMS_P1;PMS_P2;Temp;Humidity;BMP_temperature;BMP_pressure;BME280_temperature;BME280_humidity;BME280_pressure;Samples;Min_cycle;Max_cycle;Signal;HPM_P1;HPM_P2
2022/06/16 00:00:54;;;;;;;0.30;0.30;;;16.80;1.00;;;;;;5071837;28;20262;-72
2022/06/16 00:03:20;;;;;;;0.30;0.30;;;16.80;1.00;;;;;;5073046;28;20202;-72
2022/06/16 00:05:46;;;;;;;0.30;0.30;;;16.70;1.00;;;;;;5072661;28;20185;-72
2022/06/16 00:08:14;;;;;;;0.30;0.30;;;16.70;1.00;;;;;;5072594;28;20206;-71
2022/06/16 00:11:16;;;;;;;0.40;0.40;;;16.70;1.00;;;;;;5071910;28;20232;-72
2022/06/16 00:13:38;;;;;;;0.30;0.30;;;16.70;1.00;;;;;;5072523;28;20273;-72
2022/06/16 00:16:05;;;;;;;0.30;0.30;;;16.60;1.00;;;;;;5072549;28;20654;-72
2022/06/16 00:18:31;;;;;;;0.30;0.30;;;16.60;1.00;;;;;;5072858;28;20240;-72
2022/06/16 00:20:57;;;;;;;0.50;0.50;;;16.60;1.00;;;;;;5072061;28;20200;-72
2022/06/16 00:23:23;;;;;;;0.37;0.37;;;16.60;1.00;;;;;;5072402;28;20257;-72
2022/06/16 00:25:49;;;;;;;0.30;0.30;;;16.60;1.00;;;;;;5072387;28;20692;-72
2022/06/16 00:28:14;;;;;;;0.30;0.30;;;16.60;99.90;;;;;;5072421;28;20211;-72
2022/06/16 00:30:41;;;;;;;0.30;0.30;;;16.50;99.90;;;;;;5071942;28;20797;-72
2022/06/16 00:33:06;;;;;;;0.30;0.30;;;16.50;1.00;;;;;;5072336;28;20228;-72
2022/06/16 00:35:32;;;;;;;0.33;0.33;;;16.50;1.00;;;;;;5072117;28;20261;-72
2022/06/16 00:37:58;;;;;;;0.40;0.40;;;16.40;1.00;;;;;;5071975;28;20174;-73
2022/06/16 00:40:24;;;;;;;0.40;0.40;;;16.40;1.00;;;;;;5071793;28;20175;-72
2022/06/16 00:42:49;;;;;;;0.30;0.30;;;16.30;1.00;;;;;;5072276;28;20205;-72
2022/06/16 00:46:12;;;;;;;0.30;0.30;;;16.20;1.00;;;;;;5072129;28;20181;-72
2022/06/16 00:48:55;;;;;;;0.40;0.40;;;16.20;1.00;;;;;;4970720;28;20274;-73
2022/06/16 00:51:24;;;;;;;0.30;0.30;;;16.10;1.00;;;;;;4970776;28;20202;-73
2022/06/16 00:53:50;;;;;;;0.33;0.33;;;16.10;1.00;;;;;;5031489;28;20187;-72
2022/06/16 00:56:19;;;;;;;0.30;0.30;;;16.10;1.00;;;;;;5071725;28;20243;-73
2022/06/16 00:58:48;;;;;;;0.30;0.30;;;16.10;1.00;;;;;;5071664;28;20197;-72
2022/06/16 01:01:17;;;;;;;0.30;0.30;;;16.10;1.00;;;;;;5071426;28;20187;-72
2022/06/16 01:06:28;;;;;;;0.30;0.30;;;16.10;1.00;;;;;;5071615;28;20214;-73
2022/06/16 01:09:07;;;;;;;0.30;0.30;;;16.00;1.00;;;;;;5071256;28;20186;-73
2022/06/16 01:14:34;;;;;;;0.40;0.40;;;16.00;1.00;;;;;;5071600;28;20173;-72
2022/06/16 01:17:05;;;;;;;0.43;0.43;;;16.00;1.00;;;;;;5071498;28;20212;-72
2022/06/16 01:20:16;;;;;;;0.40;0.40;;;15.90;1.00;;;;;;5070892;28;20261;-72
2022/06/16 01:23:24;;;;;;;0.40;0.40;;;15.90;1.00;;;;;;5061191;28;20365;-73
2022/06/16 01:26:07;;;;;;;0.30;0.30;;;15.90;1.00;;;;;;5066779;28;20201;-73
2022/06/16 01:29:05;;;;;;;0.30;0.30;;;15.80;1.00;;;;;;5071140;28;20554;-72
2022/06/16 01:31:39;;;;;;;0.30;0.30;;;15.80;1.00;;;;;;5071242;28;20197;-73
2022/06/16 01:34:19;;;;;;;0.30;0.30;;;15.80;1.00;;;;;;5071170;28;20186;-72
2022/06/16 01:36:53;;;;;;;0.30;0.30;;;15.70;1.00;;;;;;5071391;28;20177;-72
2022/06/16 01:39:28;;;;;;;0.43;0.43;;;15.70;1.00;;;;;;5071400;28;20182;-72
2022/06/16 01:42:10;;;;;;;0.30;0.30;;;15.60;1.00;;;;;;5071347;28;20224;-72
2022/06/16 01:44:55;;;;;;;0.30;0.30;;;15.60;1.00;;;;;;5071230;28;20284;-72
2022/06/16 01:47:23;;;;;;;0.30;0.30;;;15.50;1.00;;;;;;5071144;28;20306;-73
2022/06/16 01:49:59;;;;;;;0.30;0.30;;;15.50;1.00;;;;;;5070106;28;20705;-72
2022/06/16 01:52:32;;;;;;;0.40;0.40;;;15.50;1.00;;;;;;5070988;28;20263;-73
2022/06/16 01:55:07;;;;;;;0.30;0.30;;;15.40;1.00;;;;;;5070678;28;20610;-72
2022/06/16 01:57:50;;;;;;;0.30;0.30;;;15.30;1.00;;;;;;5070731;28;20273;-72
2022/06/16 02:00:20;;;;;;;0.40;0.40;;;15.30;1.00;;;;;;5070593;28;20646;-72
2022/06/16 02:02:58;;;;;;;0.30;0.30;;;15.20;1.00;;;;;;5071080;28;20208;-72
2022/06/16 02:05:36;;;;;;;0.40;0.40;;;15.20;1.00;;;;;;5070822;28;20178;-72
2022/06/16 02:08:16;;;;;;;0.40;0.40;;;15.20;1.00;;;;;;5071076;28;20242;-72
2022/06/16 02:10:52;;;;;;;0.30;0.30;;;15.20;1.00;;;;;;5070409;28;20190;-72
2022/06/16 02:13:23;;;;;;;0.40;0.40;;;15.20;1.00;;;;;;5071054;28;20297;-73
2022/06/16 02:16:06;;;;;;;0.40;0.40;;;15.20;1.00;;;;;;5070771;28;20198;-73
2022/06/16 02:18:35;;;;;;;0.30;0.30;;;15.10;1.00;;;;;;5070971;28;20201;-72
2022/06/16 02:21:24;;;;;;;0.30;0.30;;;15.10;1.00;;;;;;5070240;28;20179;-73
2022/06/16 02:23:51;;;;;;;0.30;0.30;;;15.00;1.00;;;;;;5072360;28;20178;-73
2022/06/16 02:26:17;;;;;;;0.40;0.40;;;15.10;1.00;;;;;;5074462;28;20615;-73
2022/06/16 02:28:49;;;;;;;0.30;0.30;;;15.10;1.00;;;;;;5074597;28;20193;-73
2022/06/16 02:31:48;;;;;;;0.50;0.50;;;15.00;1.00;;;;;;5074670;28;20183;-72
2022/06/16 02:34:27;;;;;;;0.40;0.40;;;15.00;1.00;;;;;;5074403;28;20850;-72
2022/06/16 02:37:17;;;;;;;0.30;0.30;;;15.00;1.00;;;;;;5074597;28;20181;-73
2022/06/16 02:39:51;;;;;;;0.30;0.30;;;15.00;1.00;;;;;;5074224;28;20269;-73
2022/06/16 02:42:35;;;;;;;0.37;0.37;;;15.00;1.00;;;;;;5074519;28;20233;-72
2022/06/16 02:45:25;;;;;;;0.30;0.30;;;14.90;1.00;;;;;;5074426;28;20177;-73
2022/06/16 02:48:01;;;;;;;0.30;0.30;;;14.90;1.00;;;;;;5074562;28;20214;-72
2022/06/16 02:51:00;;;;;;;0.33;0.33;;;14.80;1.00;;;;;;5073975;28;20170;-72
2022/06/16 02:56:17;;;;;;;0.50;0.50;;;14.80;1.00;;;;;;5074275;28;20178;-72
2022/06/16 02:58:44;;;;;;;0.40;0.40;;;14.80;1.00;;;;;;5074020;28;20544;-72
2022/06/16 03:01:10;;;;;;;0.40;0.40;;;14.80;1.00;;;;;;5073498;28;20205;-72
2022/06/16 03:03:37;;;;;;;0.40;0.40;;;14.70;1.00;;;;;;5073950;28;20806;-72
2022/06/16 03:06:03;;;;;;;0.40;0.40;;;14.80;1.00;;;;;;5073684;28;20781;-72
2022/06/16 03:08:31;;;;;;;0.37;0.37;;;14.70;1.00;;;;;;5074028;28;20182;-72
2022/06/16 03:10:58;;;;;;;0.30;0.30;;;14.80;1.00;;;;;;5073448;28;20175;-72
2022/06/16 03:13:33;;;;;;;0.40;0.40;;;14.80;1.00;;;;;;5073949;28;20182;-72
2022/06/16 03:16:01;;;;;;;0.40;0.40;;;14.70;1.00;;;;;;5073792;28;20312;-72
2022/06/16 03:18:27;;;;;;;0.30;0.30;;;14.70;1.00;;;;;;5073604;28;20220;-72
2022/06/16 03:20:53;;;;;;;0.40;0.40;;;14.80;1.00;;;;;;5073488;28;20237;-72
2022/06/16 03:23:19;;;;;;;0.40;0.40;;;14.70;1.00;;;;;;5073763;28;20190;-71
2022/06/16 03:25:45;;;;;;;0.30;0.30;;;14.70;1.00;;;;;;5073836;28;20201;-72
2022/06/16 03:28:11;;;;;;;0.30;0.30;;;14.70;1.00;;;;;;5073643;28;20686;-72
2022/06/16 03:30:38;;;;;;;0.50;0.50;;;14.80;1.00;;;;;;5073251;28;20171;-72
2022/06/16 03:33:06;;;;;;;0.40;0.40;;;14.80;1.00;;;;;;5073462;28;20210;-72
2022/06/16 03:35:32;;;;;;;0.40;0.40;;;14.90;15.50;;;;;;5072681;28;20186;-72
2022/06/16 03:38:22;;;;;;;0.40;0.40;;;14.90;28.60;;;;;;5073770;28;20171;-71
2022/06/16 03:40:44;;;;;;;0.50;0.50;;;14.90;1.00;;;;;;5072575;28;20725;-72
2022/06/16 03:43:09;;;;;;;0.40;0.40;;;14.80;1.00;;;;;;5073274;28;20194;-72
2022/06/16 03:45:38;;;;;;;0.40;0.40;;;14.80;1.00;;;;;;5073481;28;20210;-72
2022/06/16 03:48:05;;;;;;;0.30;0.30;;;14.80;1.00;;;;;;5073302;28;20218;-72
2022/06/16 03:50:30;;;;;;;0.40;0.40;;;14.70;1.00;;;;;;5072912;28;20178;-72
2022/06/16 03:52:56;;;;;;;0.30;0.30;;;14.70;1.00;;;;;;5073274;28;20203;-72
2022/06/16 03:55:22;;;;;;;0.40;0.40;;;14.80;1.00;;;;;;5073094;28;20543;-72
2022/06/16 03:57:48;;;;;;;0.40;0.40;;;14.80;2.40;;;;;;5073025;28;20181;-72
2022/06/16 04:00:15;;;;;;;0.30;0.30;;;14.80;1.70;;;;;;5072389;28;20190;-72
2022/06/16 04:02:40;;;;;;;0.40;0.40;;;14.80;1.00;;;;;;5072840;28;20190;-72
2022/06/16 04:05:08;;;;;;;0.40;0.40;;;14.80;1.00;;;;;;5073024;28;20167;-72
2022/06/16 04:07:35;;;;;;;0.33;0.33;;;14.90;7.00;;;;;;5073047;28;20275;-72
2022/06/16 04:10:02;;;;;;;0.40;0.40;;;15.10;30.70;;;;;;5072296;28;20256;-73
2022/06/16 04:12:27;;;;;;;0.30;0.30;;;15.30;38.40;;;;;;5073218;28;20202;-72
2022/06/16 04:14:54;;;;;;;0.30;0.30;;;15.50;18.10;;;;;;5073029;28;20171;-72
2022/06/16 04:17:20;;;;;;;0.40;0.40;;;15.60;13.80;;;;;;5072733;28;20178;-73
2022/06/16 04:20:12;;;;;;;0.30;0.30;;;15.80;5.90;;;;;;5072331;28;20174;-72
2022/06/16 04:22:37;;;;;;;0.30;0.30;;;15.90;1.00;;;;;;5072569;28;20190;-72
2022/06/16 04:25:04;;;;;;;0.40;0.40;;;16.10;1.00;;;;;;5072331;28;20642;-72
2022/06/16 04:27:30;;;;;;;0.30;0.30;;;16.10;1.00;;;;;;5072280;28;20226;-72
2022/06/16 04:29:55;;;;;;;0.30;0.30;;;16.10;1.00;;;;;;5072087;28;20177;-72
2022/06/16 04:32:21;;;;;;;0.30;0.30;;;16.20;1.00;;;;;;5072410;28;20205;-72
2022/06/16 04:34:46;;;;;;;0.30;0.30;;;15.90;1.00;;;;;;5072521;28;20643;-72
2022/06/16 04:37:12;;;;;;;0.30;0.30;;;15.70;1.00;;;;;;5072232;28;20242;-71
2022/06/16 04:39:38;;;;;;;0.30;0.30;;;15.70;1.00;;;;;;5071515;28;20182;-71
2022/06/16 04:42:04;;;;;;;0.37;0.37;;;15.70;45.80;;;;;;5072006;28;20198;-72
2022/06/16 04:44:31;;;;;;;0.30;0.30;;;15.80;69.90;;;;;;5071991;28;20865;-72
2022/06/16 04:46:57;;;;;;;0.40;0.40;;;15.90;13.00;;;;;;5071771;28;20210;-72
2022/06/16 04:49:22;;;;;;;0.30;0.30;;;16.10;1.00;;;;;;5071428;28;20170;-73
2022/06/16 04:51:48;;;;;;;0.30;0.30;;;16.20;1.00;;;;;;5071612;28;20190;-73
2022/06/16 04:54:14;;;;;;;0.40;0.40;;;16.30;1.00;;;;;;5071802;28;20179;-73
2022/06/16 04:56:39;;;;;;;0.30;0.30;;;16.50;1.00;;;;;;5072098;28;20175;-73
2022/06/16 04:59:05;;;;;;;0.30;0.30;;;16.50;1.00;;;;;;5071460;28;20655;-73
2022/06/16 05:01:30;;;;;;;0.30;0.30;;;16.30;1.00;;;;;;5071886;28;20582;-72
2022/06/16 05:03:56;;;;;;;0.30;0.30;;;16.20;1.00;;;;;;5071789;28;20296;-73
2022/06/16 05:06:21;;;;;;;0.30;0.30;;;16.20;1.00;;;;;;5070788;28;20269;-73
2022/06/16 05:08:48;;;;;;;0.30;0.30;;;16.40;1.00;;;;;;5071314;28;20190;-73
2022/06/16 05:11:14;;;;;;;0.30;0.30;;;16.60;1.00;;;;;;5061826;28;20190;-73
2022/06/16 05:13:39;;;;;;;0.30;0.30;;;16.90;1.00;;;;;;5063703;28;20183;-74
2022/06/16 05:16:05;;;;;;;0.30;0.30;;;17.10;1.00;;;;;;5061012;28;20162;-73
2022/06/16 05:18:31;;;;;;;0.30;0.30;;;17.20;1.00;;;;;;5067450;28;20194;-73
2022/06/16 05:21:07;;;;;;;0.40;0.40;;;17.50;1.00;;;;;;5071027;28;20265;-73
2022/06/16 05:23:33;;;;;;;0.30;0.30;;;17.70;1.00;;;;;;5069233;28;20271;-73
2022/06/16 05:25:59;;;;;;;0.30;0.30;;;17.70;1.00;;;;;;5071691;28;20627;-73
2022/06/16 05:28:24;;;;;;;0.40;0.40;;;17.90;1.00;;;;;;5070343;28;20320;-72
2022/06/16 05:30:50;;;;;;;0.20;0.20;;;18.00;1.00;;;;;;5066788;28;20721;-73
2022/06/16 05:33:16;;;;;;;0.30;0.30;;;17.80;1.00;;;;;;5071032;28;20696;-73
2022/06/16 05:35:42;;;;;;;0.30;0.30;;;17.80;1.00;;;;;;5062418;28;20183;-73
2022/06/16 05:38:07;;;;;;;0.30;0.30;;;17.90;1.00;;;;;;5064999;28;20256;-73
2022/06/16 05:40:33;;;;;;;0.30;0.30;;;18.00;99.90;;;;;;5059499;28;20265;-73
2022/06/16 05:42:58;;;;;;;0.40;0.40;;;18.00;1.00;;;;;;5060867;28;20269;-73
2022/06/16 05:45:24;;;;;;;0.30;0.30;;;18.10;1.00;;;;;;5054363;28;20175;-73
2022/06/16 05:47:49;;;;;;;0.40;0.40;;;18.30;99.90;;;;;;5050941;28;20773;-73
2022/06/16 05:50:17;;;;;;;0.30;0.30;;;18.60;1.00;;;;;;5050530;28;20175;-73
2022/06/16 05:52:43;;;;;;;0.40;0.40;;;18.80;99.90;;;;;;5050730;28;20205;-73
2022/06/16 05:55:12;;;;;;;0.30;0.30;;;18.90;99.90;;;;;;5062481;28;20316;-74
2022/06/16 05:57:37;;;;;;;0.20;0.20;;;19.00;1.00;;;;;;5063066;28;20183;-73
2022/06/16 06:00:04;;;;;;;0.30;0.30;;;19.20;99.90;;;;;;5070355;28;20173;-73
2022/06/16 06:02:30;;;;;;;0.30;0.30;;;19.50;99.90;;;;;;5070986;28;20194;-70
2022/06/16 06:04:55;;;;;;;0.30;0.30;;;19.70;99.90;;;;;;5070806;28;20178;-71
2022/06/16 06:07:21;;;;;;;0.30;0.30;;;19.70;99.90;;;;;;5069761;28;20300;-70
2022/06/16 06:18:03;;;;;;;0.30;0.30;;;19.70;1.00;;;;;;5071425;28;20231;-71
2022/06/16 06:20:29;;;;;;;0.30;0.30;;;19.70;1.00;;;;;;5070458;28;20179;-71
2022/06/16 06:22:54;;;;;;;0.30;0.30;;;19.70;99.90;;;;;;5071043;28;20683;-71
2022/06/16 06:25:20;;;;;;;0.30;0.30;;;19.60;1.00;;;;;;5070898;28;20182;-72
2022/06/16 06:27:47;;;;;;;0.30;0.30;;;19.70;1.00;;;;;;5071359;28;20233;-73
2022/06/16 06:30:19;;;;;;;0.30;0.30;;;19.70;99.90;;;;;;5070912;28;20178;-72
2022/06/16 06:32:45;;;;;;;0.30;0.30;;;19.70;99.90;;;;;;5070817;28;20289;-73
2022/06/16 06:35:11;;;;;;;0.30;0.30;;;19.70;99.90;;;;;;5070873;28;20657;-73
2022/06/16 06:37:38;;;;;;;0.40;0.40;;;19.80;1.00;;;;;;5071116;28;20182;-72
2022/06/16 06:40:05;;;;;;;0.30;0.30;;;19.80;1.00;;;;;;5070376;28;20245;-73
2022/06/16 06:42:31;;;;;;;0.30;0.30;;;19.80;1.00;;;;;;5070471;28;20210;-72
2022/06/16 06:44:56;;;;;;;0.40;0.40;;;20.00;1.00;;;;;;5070960;28;20198;-73
2022/06/16 06:47:25;;;;;;;0.30;0.30;;;20.10;46.50;;;;;;5070857;28;20242;-73
2022/06/16 06:49:51;;;;;;;0.40;0.40;;;20.30;1.00;;;;;;5070029;28;20527;-73
2022/06/16 06:52:17;;;;;;;0.30;0.30;;;20.50;99.90;;;;;;5070712;28;20190;-73
2022/06/16 06:54:45;;;;;;;0.30;0.30;;;20.60;1.00;;;;;;5070555;28;20206;-73
2022/06/16 06:57:13;;;;;;;0.30;0.30;;;20.60;1.00;;;;;;5070272;28;20261;-72
2022/06/16 06:59:38;;;;;;;0.30;0.30;;;20.70;1.00;;;;;;5070017;28;20191;-72
2022/06/16 07:02:05;;;;;;;0.23;0.23;;;20.80;1.00;;;;;;5070437;28;20202;-72
2022/06/16 07:04:30;;;;;;;0.20;0.20;;;20.80;1.00;;;;;;5070445;28;20185;-73
2022/06/16 07:06:56;;;;;;;0.30;0.30;;;20.70;1.00;;;;;;5070765;28;20210;-73
2022/06/16 07:09:22;;;;;;;0.40;0.40;;;20.70;1.00;;;;;;5065955;28;20203;-73
2022/06/16 07:11:48;;;;;;;0.30;0.30;;;20.80;1.00;;;;;;5072706;28;20201;-74
2022/06/16 07:14:14;;;;;;;0.30;0.30;;;21.10;1.00;;;;;;5074101;28;20265;-73
2022/06/16 07:16:40;;;;;;;0.30;0.30;;;21.50;99.90;;;;;;5072550;28;20269;-74
2022/06/16 07:19:06;;;;;;;0.30;0.30;;;21.80;1.00;;;;;;5065323;28;20691;-73
2022/06/16 07:21:32;;;;;;;0.30;0.30;;;21.80;1.00;;;;;;5067614;28;20190;-73
2022/06/16 07:23:57;;;;;;;0.40;0.40;;;21.90;1.00;;;;;;5068474;28;20175;-74
2022/06/16 07:26:24;;;;;;;0.33;0.33;;;22.00;1.00;;;;;;5070709;28;20178;-73
2022/06/16 07:28:50;;;;;;;0.20;0.20;;;22.20;1.00;;;;;;5065869;28;20197;-72
2022/06/16 07:31:15;;;;;;;0.20;0.20;;;22.40;1.00;;;;;;5064073;28;20189;-73
2022/06/16 07:33:41;;;;;;;0.30;0.30;;;22.40;1.00;;;;;;5066254;28;20218;-74
2022/06/16 07:36:08;;;;;;;0.30;0.30;;;22.50;1.00;;;;;;5065505;28;20536;-74
2022/06/16 07:38:34;;;;;;;0.30;0.30;;;22.60;1.00;;;;;;5063787;28;20651;-74
2022/06/16 07:43:44;;;;;;;0.30;0.30;;;23.40;1.00;;;;;;5059295;28;20247;-74
2022/06/16 07:46:10;;;;;;;0.30;0.30;;;24.00;1.00;;;;;;5063742;28;20186;-74
2022/06/16 07:48:35;;;;;;;0.37;0.37;;;24.50;1.00;;;;;;5064539;28;20231;-74
2022/06/16 07:51:01;;;;;;;0.40;0.40;;;25.00;1.00;;;;;;5062673;28;20170;-74
2022/06/16 07:53:27;;;;;;;0.30;0.30;;;25.20;1.00;;;;;;5060602;28;20209;-74
2022/06/16 07:55:52;;;;;;;0.30;0.30;;;25.30;1.00;;;;;;5066410;28;20177;-74
2022/06/16 07:58:18;;;;;;;0.30;0.30;;;25.60;1.00;;;;;;5063693;28;20212;-74
2022/06/16 08:00:43;;;;;;;0.40;0.40;;;26.10;1.00;;;;;;5060553;28;20546;-74
2022/06/16 08:03:09;;;;;;;0.40;0.40;;;26.60;1.00;;;;;;5060795;28;20557;-74
2022/06/16 08:05:35;;;;;;;0.30;0.30;;;26.80;1.00;;;;;;5063454;28;20171;-75
2022/06/16 08:08:00;;;;;;;0.30;0.30;;;26.90;1.00;;;;;;5061895;28;20207;-74
2022/06/16 08:10:29;;;;;;;0.40;0.40;;;26.80;1.00;;;;;;5061527;28;20631;-74
2022/06/16 08:12:55;;;;;;;0.30;0.30;;;26.70;1.00;;;;;;5071511;28;20222;-75
2022/06/16 08:15:20;;;;;;;0.50;0.50;;;26.60;1.00;;;;;;5072869;28;20602;-74
2022/06/16 08:17:49;;;;;;;0.50;0.50;;;26.70;1.00;;;;;;5072845;28;20185;-74
2022/06/16 08:20:15;;;;;;;0.43;0.43;;;26.50;1.00;;;;;;5072185;28;20232;-75
2022/06/16 08:22:42;;;;;;;0.30;0.30;;;26.80;1.00;;;;;;5072133;28;20695;-74
2022/06/16 08:25:10;;;;;;;0.40;0.40;;;26.90;1.00;;;;;;5065294;28;20179;-75
2022/06/16 08:27:37;;;;;;;0.47;0.47;;;27.50;1.00;;;;;;5059522;28;20219;-75
2022/06/16 08:30:10;;;;;;;0.50;0.50;;;28.00;1.00;;;;;;5065307;28;20676;-75
2022/06/16 08:32:35;;;;;;;0.50;0.50;;;28.40;1.00;;;;;;5068978;28;20203;-75
2022/06/16 08:35:02;;;;;;;0.37;0.37;;;28.70;1.00;;;;;;5061138;28;20182;-75
2022/06/16 08:37:28;;;;;;;0.40;0.40;;;29.00;1.00;;;;;;5072295;28;20206;-75
2022/06/16 08:39:53;;;;;;;0.40;0.40;;;29.30;1.00;;;;;;5066773;28;20179;-74
2022/06/16 08:42:40;;;;;;;0.50;0.50;;;29.30;1.00;;;;;;5072239;28;20194;-75
2022/06/16 08:45:21;;;;;;;0.47;0.47;;;29.40;1.00;;;;;;5072246;28;20593;-74
2022/06/16 08:48:13;;;;;;;0.50;0.50;;;29.50;1.00;;;;;;5072242;28;20214;-74
2022/06/16 08:51:07;;;;;;;0.50;0.50;;;29.70;1.00;;;;;;5069501;28;20217;-75
2022/06/16 08:54:14;;;;;;;0.60;0.60;;;29.80;1.00;;;;;;5071834;28;20224;-75
2022/06/16 08:56:50;;;;;;;0.50;0.50;;;29.70;1.00;;;;;;5022678;28;20190;-75
2022/06/16 08:59:34;;;;;;;0.70;0.70;;;29.70;1.00;;;;;;5071618;28;20649;-75
2022/06/16 09:02:05;;;;;;;0.60;0.60;;;30.00;1.00;;;;;;5071773;28;20194;-76
2022/06/16 09:04:49;;;;;;;0.43;0.43;;;30.30;1.00;;;;;;5071627;28;20170;-74
2022/06/16 09:07:35;;;;;;;0.63;0.63;;;30.40;1.00;;;;;;5071866;28;20554;-75
2022/06/16 09:10:15;;;;;;;0.60;0.60;;;30.70;1.00;;;;;;5071166;28;20222;-75
2022/06/16 09:13:02;;;;;;;0.60;0.60;;;30.90;1.00;;;;;;5069215;28;20865;-75
2022/06/16 09:15:52;;;;;;;0.70;0.70;;;31.10;1.00;;;;;;5071622;28;20193;-74
2022/06/16 09:18:41;;;;;;;0.60;0.60;;;31.00;1.00;;;;;;5071636;28;20193;-74
2022/06/16 09:21:32;;;;;;;0.70;0.70;;;30.90;1.00;;;;;;5058799;28;20535;-73
2022/06/16 09:24:13;;;;;;;0.60;0.60;;;30.80;1.00;;;;;;5063903;28;20622;-73
2022/06/16 09:26:48;;;;;;;0.50;0.50;;;30.40;1.00;;;;;;5071362;28;20198;-73
2022/06/16 09:29:25;;;;;;;0.60;0.60;;;30.30;1.00;;;;;;5067360;28;20218;-72
2022/06/16 09:32:03;;;;;;;0.60;0.60;;;30.50;1.00;;;;;;5063002;28;20273;-72
2022/06/16 09:34:57;;;;;;;0.63;0.63;;;30.60;1.00;;;;;;5069250;28;20174;-72
2022/06/16 09:38:08;;;;;;;0.60;0.60;;;30.70;1.00;;;;;;5070235;28;20228;-74
2022/06/16 09:42:32;;;;;;;0.50;0.50;;;30.80;1.00;;;;;;5059256;28;20330;-73
2022/06/16 09:44:02;;;;;;;0.70;0.70;;;30.80;1.00;;;;;;5062888;28;20292;-74
2022/06/16 09:46:32;;;;;;;0.60;0.60;;;30.90;1.00;;;;;;5070801;28;20170;-72
2022/06/16 09:49:08;;;;;;;0.60;0.60;;;31.30;1.00;;;;;;5059377;28;20231;-73
2022/06/16 09:51:44;;;;;;;0.50;0.50;;;31.60;1.00;;;;;;5058815;28;20596;-74
2022/06/16 09:54:27;;;;;;;0.60;0.60;;;32.10;1.00;;;;;;5059074;28;20170;-72
2022/06/16 09:56:55;;;;;;;0.40;0.40;;;32.20;1.00;;;;;;5059634;28;20202;-74
2022/06/16 09:59:26;;;;;;;0.60;0.60;;;32.50;1.00;;;;;;5062614;28;20577;-74
2022/06/16 10:02:00;;;;;;;0.50;0.50;;;32.60;1.00;;;;;;5056234;28;20239;-76
2022/06/16 10:04:27;;;;;;;0.50;0.50;;;32.60;1.00;;;;;;5058426;28;20183;-75
2022/06/16 10:07:25;;;;;;;0.60;0.60;;;32.70;1.00;;;;;;5055867;28;20233;-74
2022/06/16 10:10:09;;;;;;;0.50;0.50;;;32.90;1.00;;;;;;5057846;28;20186;-73
2022/06/16 10:13:12;;;;;;;0.50;0.50;;;33.10;1.00;;;;;;5052977;28;20609;-75
2022/06/16 10:15:47;;;;;;;0.60;0.60;;;33.00;1.00;;;;;;5052720;28;20780;-75
2022/06/16 10:18:13;;;;;;;0.50;0.50;;;32.80;1.00;;;;;;5062796;28;20179;-76
2022/06/16 10:20:39;;;;;;;0.50;0.50;;;32.80;1.00;;;;;;5056241;28;20261;-77
2022/06/16 10:23:14;;;;;;;0.30;0.30;;;32.90;1.00;;;;;;5059938;28;20572;-75
2022/06/16 10:25:48;;;;;;;0.47;0.47;;;33.10;1.00;;;;;;5055319;28;20178;-76
2022/06/16 10:28:34;;;;;;;0.60;0.60;;;33.20;1.00;;;;;;5059745;28;20628;-75
2022/06/16 10:31:02;;;;;;;0.50;0.50;;;33.30;1.00;;;;;;5057003;28;20194;-76
2022/06/16 10:33:31;;;;;;;0.60;0.60;;;33.50;1.00;;;;;;5060848;28;20197;-76
2022/06/16 10:36:11;;;;;;;0.50;0.50;;;33.00;1.00;;;;;;5058850;28;20175;-75
2022/06/16 10:39:15;;;;;;;0.40;0.40;;;33.10;1.00;;;;;;5060660;28;20221;-75
2022/06/16 10:41:52;;;;;;;0.50;0.50;;;33.00;1.00;;;;;;5062782;28;20195;-76
2022/06/16 10:44:19;;;;;;;0.50;0.50;;;33.30;1.00;;;;;;5055933;28;20208;-74
2022/06/16 10:46:50;;;;;;;0.47;0.47;;;33.00;1.00;;;;;;5060864;28;20206;-76
2022/06/16 10:49:20;;;;;;;0.40;0.40;;;33.00;1.00;;;;;;5072384;28;20665;-75
2022/06/16 10:52:14;;;;;;;0.50;0.50;;;33.10;1.00;;;;;;5064080;28;20232;-75
2022/06/16 10:54:55;;;;;;;0.43;0.43;;;33.00;1.00;;;;;;5051917;28;20174;-76
2022/06/16 10:57:28;;;;;;;0.40;0.40;;;33.10;1.00;;;;;;5067708;28;20209;-75
2022/06/16 11:00:06;;;;;;;0.50;0.50;;;33.10;1.00;;;;;;5068628;28;20281;-75
2022/06/16 11:02:35;;;;;;;0.40;0.40;;;33.10;1.00;;;;;;5062673;28;20940;-75
2022/06/16 11:05:12;;;;;;;0.50;0.50;;;33.00;1.00;;;;;;5059941;28;20244;-74
2022/06/16 11:07:42;;;;;;;0.60;0.60;;;32.80;1.00;;;;;;5060211;28;20241;-74
2022/06/16 11:10:31;;;;;;;0.60;0.60;;;32.80;1.00;;;;;;5057536;28;20195;-74
2022/06/16 11:12:57;;;;;;;0.50;0.50;;;32.70;1.00;;;;;;5056377;28;20199;-75
2022/06/16 11:15:26;;;;;;;0.57;0.57;;;33.10;1.00;;;;;;5087855;28;20248;-76
2022/06/16 11:18:02;;;;;;;0.57;0.57;;;33.00;1.00;;;;;;5072927;28;20655;-75
2022/06/16 11:20:48;;;;;;;0.35;0.35;;;33.00;1.00;;;;;;5082091;28;20185;-74
2022/06/16 11:23:19;;;;;;;0.50;0.50;;;33.10;1.00;;;;;;5082944;28;20275;-77
2022/06/16 11:25:46;;;;;;;0.50;0.50;;;32.80;1.00;;;;;;5076419;28;20526;-75
2022/06/16 11:28:20;;;;;;;0.47;0.47;;;32.80;1.00;;;;;;5072322;28;21648;-75
2022/06/16 11:30:49;;;;;;;0.50;0.50;;;33.10;1.00;;;;;;5069266;28;20655;-74
2022/06/16 11:36:41;;;;;;;0.50;0.50;;;33.10;1.00;;;;;;5071545;28;20190;-75
2022/06/16 11:39:18;;;;;;;0.40;0.40;;;33.40;1.00;;;;;;5074520;28;20662;-76
2022/06/16 11:41:48;;;;;;;0.40;0.40;;;33.40;1.00;;;;;;5079677;28;20198;-75
2022/06/16 11:44:51;;;;;;;0.50;0.50;;;33.30;1.00;;;;;;5071243;28;20178;-74
2022/06/16 11:47:44;;;;;;;0.52;0.52;;;33.40;1.00;;;;;;5068111;28;20210;-75
2022/06/16 11:50:35;;;;;;;0.35;0.35;;;33.40;1.00;;;;;;5090769;28;20202;-74
2022/06/16 11:53:19;;;;;;;0.60;0.60;;;33.40;1.00;;;;;;5067882;28;20213;-74
2022/06/16 11:56:01;;;;;;;0.47;0.47;;;33.60;1.00;;;;;;5071491;28;20178;-76
2022/06/16 11:58:52;;;;;;;0.38;0.38;;;33.30;1.00;;;;;;5074075;28;20235;-77
2022/06/16 12:01:28;;;;;;;0.45;0.45;;;33.50;1.00;;;;;;5060621;28;20196;-73
2022/06/16 12:04:32;;;;;;;0.50;0.50;;;33.50;1.00;;;;;;5057075;28;20219;-74
2022/06/16 12:07:21;;;;;;;0.50;0.50;;;33.10;1.00;;;;;;5067607;28;20197;-76
2022/06/16 12:10:24;;;;;;;0.52;0.52;;;33.00;1.00;;;;;;5072129;28;20190;-74
2022/06/16 12:13:09;;;;;;;0.60;0.60;;;33.20;1.00;;;;;;5072604;28;20209;-73
2022/06/16 12:15:45;;;;;;;0.40;0.40;;;33.20;1.00;;;;;;5071275;28;20189;-76
2022/06/16 12:18:28;;;;;;;0.60;0.60;;;32.90;1.00;;;;;;5072680;28;20261;-75
2022/06/16 12:21:21;;;;;;;0.40;0.40;;;32.70;1.00;;;;;;5072466;28;20181;-74
2022/06/16 12:24:12;;;;;;;0.50;0.50;;;33.00;1.00;;;;;;5064480;28;20265;-79
2022/06/16 12:26:59;;;;;;;0.50;0.50;;;33.40;1.00;;;;;;5071201;28;20170;-75
2022/06/16 12:30:00;;;;;;;0.57;0.57;;;33.50;1.00;;;;;;5059357;28;20281;-74
2022/06/16 12:32:32;;;;;;;0.40;0.40;;;33.50;1.00;;;;;;5055584;28;20207;-76
2022/06/16 12:35:14;;;;;;;0.40;0.40;;;33.50;1.00;;;;;;5056419;28;20511;-75
2022/06/16 12:37:47;;;;;;;0.50;0.50;;;33.60;1.00;;;;;;5062550;28;20603;-75
2022/06/16 12:40:27;;;;;;;0.55;0.55;;;33.70;1.00;;;;;;5062578;28;20571;-76
2022/06/16 12:43:04;;;;;;;0.60;0.60;;;33.60;1.00;;;;;;5068142;28;20202;-75
2022/06/16 12:45:42;;;;;;;0.50;0.50;;;33.60;1.00;;;;;;5052004;28;20652;-76
2022/06/16 12:48:16;;;;;;;0.40;0.40;;;33.60;1.00;;;;;;5066178;28;20253;-74
2022/06/16 12:50:55;;;;;;;0.50;0.50;;;33.50;1.00;;;;;;5057042;28;20182;-75
2022/06/16 12:53:36;;;;;;;0.60;0.60;;;33.20;1.00;;;;;;5065658;28;20194;-75
2022/06/16 12:56:12;;;;;;;0.65;0.65;;;33.20;1.00;;;;;;5064506;28;20174;-76
2022/06/16 12:58:51;;;;;;;0.60;0.60;;;33.00;1.00;;;;;;5054692;28;20640;-75
2022/06/16 13:01:18;;;;;;;0.40;0.40;;;32.90;1.00;;;;;;5065040;28;20587;-76
2022/06/16 13:03:52;;;;;;;0.60;0.60;;;32.70;1.00;;;;;;5062360;28;20197;-76
2022/06/16 13:06:21;;;;;;;0.50;0.50;;;32.80;1.00;;;;;;5057043;28;20195;-75
2022/06/16 13:08:51;;;;;;;0.60;0.60;;;32.50;1.00;;;;;;5067414;28;20218;-75
2022/06/16 13:11:21;;;;;;;0.63;0.63;;;32.30;1.00;;;;;;5057922;28;20281;-75
2022/06/16 13:13:54;;;;;;;0.52;0.52;;;32.30;1.00;;;;;;5060238;28;20203;-75
2022/06/16 13:16:24;;;;;;;0.50;0.50;;;32.40;1.00;;;;;;5058969;28;20182;-74
2022/06/16 13:19:08;;;;;;;0.60;0.60;;;32.50;1.00;;;;;;5068730;28;20185;-76
2022/06/16 13:21:40;;;;;;;0.60;0.60;;;32.50;1.00;;;;;;5059356;28;20284;-75
2022/06/16 13:24:34;;;;;;;0.70;0.70;;;32.50;1.00;;;;;;5057989;28;20228;-75
2022/06/16 13:27:09;;;;;;;0.60;0.60;;;32.70;1.00;;;;;;5056378;28;20223;-75
2022/06/16 13:29:55;;;;;;;0.50;0.50;;;32.60;1.00;;;;;;5059055;28;20166;-76
2022/06/16 13:32:47;;;;;;;0.50;0.50;;;32.40;1.00;;;;;;5060252;28;20416;-77
2022/06/16 13:35:12;;;;;;;0.52;0.52;;;32.30;1.00;;;;;;5058349;28;20182;-76
2022/06/16 13:37:51;;;;;;;0.50;0.50;;;32.10;1.00;;;;;;5061704;28;20182;-76
2022/06/16 13:40:22;;;;;;;0.60;0.60;;;32.30;1.00;;;;;;5059812;28;20182;-75
2022/06/16 13:42:54;;;;;;;0.50;0.50;;;32.60;1.00;;;;;;5064478;28;20898;-75
2022/06/16 13:45:28;;;;;;;0.60;0.60;;;32.50;1.00;;;;;;5063885;28;20624;-76
2022/06/16 13:48:17;;;;;;;0.50;0.50;;;32.50;1.00;;;;;;5061073;28;20284;-75
2022/06/16 13:50:55;;;;;;;0.60;0.60;;;32.30;1.00;;;;;;5067286;28;20174;-75